Terminal Aerodrome Forecast
Issued by NWS Springfield, MO

Home | Current Version | Previous Version | Text Only | Print | Product List | Glossary On
Versions: 1 2 3 4 5 6 7 8 9 10 11 12
000
FTUS43 KSGF 020520
TAFSGF
TAF
KSGF 020520Z 0206/0306 16007KT P6SM SKC
     FM021500 19009KT P6SM FEW045
     FM030100 16006KT P6SM FEW150=

USA.gov is the U.S. government's official web portal to all federal, state and local government web resources and services.